createdAt,value
2018-08-17T00:00:22.611Z,15.97
2018-08-17T00:02:51.146Z,15.97
2018-08-17T00:05:19.696Z,16.00
2018-08-17T00:07:48.154Z,16.33
2018-08-17T00:10:16.609Z,16.80
2018-08-17T00:12:45.146Z,16.90
2018-08-17T00:15:13.611Z,17.50
2018-08-17T00:17:42.439Z,17.07
2018-08-17T00:20:10.931Z,17.40
2018-08-17T00:22:39.444Z,16.80
2018-08-17T00:25:07.889Z,16.87
2018-08-17T00:27:36.377Z,17.53
2018-08-17T00:30:05.876Z,17.83
2018-08-17T00:32:34.664Z,16.77
2018-08-17T00:35:03.197Z,16.80
2018-08-17T00:37:31.733Z,17.50
2018-08-17T00:40:00.186Z,17.77
2018-08-17T00:42:28.805Z,17.97
2018-08-17T00:44:57.307Z,17.90
2018-08-17T00:47:25.768Z,18.33
2018-08-17T00:49:54.213Z,19.27
2018-08-17T00:52:22.744Z,19.57
2018-08-17T00:54:51.192Z,18.73
2018-08-17T00:57:19.611Z,19.37
2018-08-17T00:59:48.033Z,19.17
2018-08-17T01:02:16.549Z,18.87
2018-08-17T01:04:44.977Z,18.87
2018-08-17T01:07:13.413Z,19.53
2018-08-17T01:09:41.850Z,20.63
2018-08-17T01:12:10.294Z,20.30
2018-08-17T01:14:38.741Z,20.23
2018-08-17T01:17:07.177Z,20.10
2018-08-17T01:19:35.605Z,20.13
2018-08-17T01:22:04.037Z,19.10
2018-08-17T01:24:32.486Z,20.20
2018-08-17T01:27:00.901Z,18.63
2018-08-17T01:29:29.363Z,19.13
2018-08-17T01:31:57.814Z,18.93
2018-08-17T01:34:26.294Z,18.80
2018-08-17T01:36:54.722Z,19.27
2018-08-17T01:39:23.203Z,19.33
2018-08-17T01:41:51.654Z,19.93
2018-08-17T01:44:20.092Z,20.53
2018-08-17T01:46:48.501Z,20.13
2018-08-17T01:49:16.982Z,20.37
2018-08-17T01:51:45.422Z,19.73
2018-08-17T01:54:13.849Z,20.70
2018-08-17T01:56:42.261Z,20.03
2018-08-17T01:59:10.717Z,19.57
2018-08-17T02:01:39.129Z,20.50
2018-08-17T02:04:07.578Z,20.90
2018-08-17T02:06:36.023Z,19.07
2018-08-17T02:09:06.856Z,20.13
2018-08-17T02:11:35.225Z,20.80
2018-08-17T02:14:03.649Z,22.17
2018-08-17T02:16:32.038Z,19.73
2018-08-17T02:19:00.510Z,23.00
2018-08-17T02:21:29.115Z,20.40
2018-08-17T02:23:57.590Z,23.30
2018-08-17T02:26:26.029Z,22.20
2018-08-17T02:28:54.466Z,23.57
2018-08-17T02:31:22.907Z,26.20
2018-08-17T02:33:51.306Z,26.53
2018-08-17T02:36:19.804Z,25.13
2018-08-17T02:38:48.297Z,26.67
2018-08-17T02:41:16.822Z,26.37
2018-08-17T02:43:45.265Z,27.77
2018-08-17T02:46:13.725Z,27.27
2018-08-17T02:48:42.172Z,27.53
2018-08-17T02:51:10.583Z,29.50
2018-08-17T02:53:39.036Z,30.13
2018-08-17T02:56:07.483Z,27.20
2018-08-17T02:58:35.924Z,28.67
2018-08-17T03:01:04.462Z,29.60
2018-08-17T03:03:32.905Z,29.27
2018-08-17T03:06:01.395Z,30.23
2018-08-17T03:08:29.895Z,30.33
2018-08-17T03:10:58.340Z,30.27
2018-08-17T03:13:26.727Z,28.37
2018-08-17T03:15:55.167Z,30.37
2018-08-17T03:18:23.622Z,31.10
2018-08-17T03:20:52.048Z,28.67
2018-08-17T03:23:20.558Z,32.70
2018-08-17T03:25:48.978Z,27.47
2018-08-17T03:28:17.373Z,27.07
2018-08-17T03:30:45.881Z,26.47
2018-08-17T03:33:14.275Z,26.53
2018-08-17T03:35:42.745Z,25.80
2018-08-17T03:38:11.230Z,26.60
2018-08-17T03:40:39.593Z,24.67
2018-08-17T03:43:07.998Z,24.30
2018-08-17T03:45:36.456Z,23.30
2018-08-17T03:48:04.905Z,23.30
2018-08-17T03:50:33.477Z,23.47
2018-08-17T03:53:01.903Z,24.03
2018-08-17T03:55:30.353Z,22.37
2018-08-17T03:57:58.768Z,21.63
2018-08-17T04:00:27.259Z,20.47
2018-08-17T04:02:55.683Z,20.67
2018-08-17T04:05:24.099Z,18.70
2018-08-17T04:07:52.602Z,18.37
2018-08-17T04:10:21.090Z,17.93
2018-08-17T04:12:49.526Z,17.50
2018-08-17T04:15:17.972Z,16.97
2018-08-17T04:17:46.416Z,15.80
2018-08-17T04:20:14.912Z,14.87
2018-08-17T04:22:43.617Z,13.83
2018-08-17T04:25:12.092Z,13.90
2018-08-17T04:27:40.535Z,13.33
2018-08-17T04:30:09.138Z,12.03
2018-08-17T04:32:37.826Z,12.57
2018-08-17T04:35:06.366Z,12.97
2018-08-17T04:37:34.871Z,12.27
2018-08-17T04:40:03.359Z,11.60
2018-08-17T04:42:31.786Z,12.27
2018-08-17T04:45:07.974Z,11.87
2018-08-17T04:47:37.590Z,11.07
2018-08-17T04:50:06.433Z,11.63
2018-08-17T04:52:34.953Z,10.77
2018-08-17T04:55:03.498Z,10.77
2018-08-17T04:57:32.006Z,10.73
2018-08-17T05:00:00.526Z,10.53
2018-08-17T05:02:28.999Z,10.47
2018-08-17T05:04:57.531Z,10.67
2018-08-17T05:07:26.014Z,10.40
2018-08-17T05:09:54.482Z,11.17
2018-08-17T05:12:22.966Z,10.37
2018-08-17T05:14:51.478Z,11.13
2018-08-17T05:17:19.969Z,9.53
2018-08-17T05:19:48.456Z,10.03
2018-08-17T05:22:16.956Z,9.00
2018-08-17T05:24:45.418Z,7.63
2018-08-17T05:27:13.881Z,7.10
2018-08-17T05:29:42.322Z,5.77
2018-08-17T05:32:10.855Z,6.13
2018-08-17T05:34:39.281Z,5.20
2018-08-17T05:37:07.785Z,5.30
2018-08-17T05:39:36.349Z,5.07
2018-08-17T05:42:04.882Z,6.17
2018-08-17T05:44:33.329Z,7.37
2018-08-17T05:47:01.858Z,8.17
2018-08-17T05:49:30.343Z,7.30
2018-08-17T05:51:58.841Z,7.47
2018-08-17T05:54:27.341Z,7.30
2018-08-17T05:56:55.802Z,7.10
2018-08-17T05:59:24.257Z,7.00
2018-08-17T06:01:52.723Z,6.60
2018-08-17T06:04:21.185Z,6.50
2018-08-17T06:06:49.666Z,6.90
2018-08-17T06:09:18.101Z,6.73
2018-08-17T06:11:46.613Z,6.13
2018-08-17T06:14:15.030Z,5.63
2018-08-17T06:16:43.518Z,5.87
2018-08-17T06:19:12.015Z,5.43
2018-08-17T06:21:40.517Z,5.90
2018-08-17T06:24:09.011Z,5.60
2018-08-17T06:26:37.520Z,5.73
2018-08-17T06:29:06.059Z,5.67
2018-08-17T06:38:10.016Z,7.00
2018-08-17T06:40:38.489Z,8.90
2018-08-17T06:43:07.057Z,7.80
2018-08-17T06:45:36.678Z,7.80
2018-08-17T06:48:05.309Z,6.90
2018-08-17T06:50:33.873Z,8.10
2018-08-17T06:53:02.334Z,9.27
2018-08-17T06:55:30.761Z,7.57
2018-08-17T06:57:59.196Z,9.00
2018-08-17T07:00:27.614Z,7.63
2018-08-17T07:02:56.029Z,7.80
2018-08-17T07:05:24.460Z,7.37
2018-08-17T07:07:52.876Z,7.33
2018-08-17T07:10:21.306Z,8.03
2018-08-17T07:12:49.717Z,9.20
2018-08-17T07:15:18.146Z,9.23
2018-08-17T07:17:46.550Z,8.70
2018-08-17T07:20:15.006Z,7.97
2018-08-17T07:22:43.428Z,8.47
2018-08-17T07:25:11.873Z,9.20
2018-08-17T07:27:40.322Z,8.53
2018-08-17T07:30:09.468Z,8.80
2018-08-17T07:32:37.894Z,10.50
2018-08-17T07:35:07.960Z,10.73
2018-08-17T07:37:36.357Z,9.37
2018-08-17T07:40:04.981Z,9.13
2018-08-17T07:42:33.438Z,8.40
2018-08-17T07:45:02.978Z,8.97
2018-08-17T07:47:31.422Z,8.20
2018-08-17T07:49:59.941Z,8.33
2018-08-17T07:52:28.424Z,8.73
2018-08-17T07:54:56.877Z,9.37
2018-08-17T07:57:25.382Z,9.33
2018-08-17T07:59:53.829Z,9.67
2018-08-17T08:02:22.296Z,9.33
2018-08-17T08:04:50.756Z,10.43
2018-08-17T08:07:19.260Z,8.90
2018-08-17T08:09:47.740Z,8.90
2018-08-17T08:12:16.205Z,10.10
2018-08-17T08:14:44.729Z,10.03
2018-08-17T08:17:18.871Z,10.07
2018-08-17T08:19:57.226Z,10.07
2018-08-17T08:22:25.663Z,10.17
2018-08-17T08:24:54.117Z,10.40
2018-08-17T08:27:22.590Z,10.10
2018-08-17T08:30:03.342Z,11.37
2018-08-17T08:32:31.871Z,11.60
2018-08-17T08:35:00.358Z,12.33
2018-08-17T08:37:28.845Z,11.23
2018-08-17T08:39:57.299Z,12.10
2018-08-17T08:42:25.797Z,12.40
2018-08-17T08:44:54.263Z,12.30
2018-08-17T08:47:22.738Z,12.80
2018-08-17T08:49:51.158Z,12.13
2018-08-17T08:52:19.592Z,10.67
2018-08-17T08:54:47.973Z,10.40
2018-08-17T08:57:16.441Z,10.80
2018-08-17T08:59:44.840Z,12.10
2018-08-17T09:02:13.288Z,12.50
2018-08-17T09:04:41.758Z,11.67
2018-08-17T09:07:10.246Z,12.33
2018-08-17T09:09:38.656Z,13.27
2018-08-17T09:12:07.177Z,13.17
2018-08-17T09:14:35.636Z,15.70
2018-08-17T09:17:04.097Z,15.97
2018-08-17T09:19:32.514Z,14.13
2018-08-17T09:22:01.029Z,10.50
2018-08-17T09:24:35.791Z,9.60
2018-08-17T09:27:04.305Z,10.67
2018-08-17T09:29:32.681Z,10.23
2018-08-17T09:32:01.099Z,10.13
2018-08-17T09:34:29.498Z,8.17
2018-08-17T09:36:58.287Z,7.57
2018-08-17T09:39:27.074Z,7.73
2018-08-17T09:41:55.646Z,6.70
2018-08-17T09:44:24.113Z,5.57
2018-08-17T09:46:52.558Z,6.30
2018-08-17T09:49:20.990Z,5.30
2018-08-17T09:51:49.410Z,5.03
2018-08-17T09:54:17.872Z,3.90
2018-08-17T09:56:46.393Z,3.50
2018-08-17T09:59:14.847Z,3.20
2018-08-17T10:01:48.577Z,3.10
2018-08-17T10:04:22.298Z,3.70
2018-08-17T10:06:56.009Z,3.43
2018-08-17T10:09:28.673Z,3.80
2018-08-17T10:11:57.145Z,4.37
2018-08-17T10:14:25.653Z,4.40
2018-08-17T10:16:54.069Z,3.87
2018-08-17T10:19:22.494Z,3.80
2018-08-17T10:21:52.379Z,4.20
2018-08-17T10:24:21.037Z,3.87
2018-08-17T10:26:50.373Z,3.40
2018-08-17T10:29:19.374Z,3.40
2018-08-17T10:31:48.580Z,3.87
2018-08-17T10:34:17.058Z,4.37
2018-08-17T10:36:46.071Z,5.80
2018-08-17T10:39:14.686Z,6.27
2018-08-17T10:41:43.324Z,5.43
2018-08-17T10:44:12.518Z,6.33
2018-08-17T10:46:41.433Z,5.93
2018-08-17T10:49:10.556Z,5.27
2018-08-17T10:51:39.426Z,5.30
2018-08-17T10:54:09.207Z,5.70
2018-08-17T10:56:37.663Z,5.67
2018-08-17T10:59:06.263Z,5.80
2018-08-17T11:01:34.733Z,6.03
2018-08-17T11:04:03.364Z,5.07
2018-08-17T11:06:31.799Z,5.63
2018-08-17T11:09:00.345Z,5.70
2018-08-17T11:11:28.781Z,6.80
2018-08-17T11:13:57.254Z,6.20
2018-08-17T11:16:25.714Z,6.17
2018-08-17T11:18:54.264Z,7.20
2018-08-17T11:21:22.724Z,6.47
2018-08-17T11:23:51.261Z,6.90
2018-08-17T11:26:19.709Z,6.77
2018-08-17T11:28:48.183Z,7.03
2018-08-17T11:31:16.705Z,7.27
2018-08-17T11:33:45.150Z,7.27
2018-08-17T11:36:13.585Z,7.03
2018-08-17T11:38:42.046Z,7.27
2018-08-17T11:41:11.487Z,7.57
2018-08-17T11:43:39.935Z,7.00
2018-08-17T11:46:08.433Z,7.40
2018-08-17T11:48:37.773Z,7.60
2018-08-17T11:51:06.329Z,7.80
2018-08-17T11:53:34.785Z,7.80
2018-08-17T11:56:03.245Z,7.67
2018-08-17T11:58:31.650Z,7.87
2018-08-17T12:01:00.209Z,8.00
2018-08-17T12:03:28.682Z,8.53
2018-08-17T12:05:57.148Z,8.27
2018-08-17T12:08:25.588Z,7.27
2018-08-17T12:11:03.214Z,8.53
2018-08-17T12:13:31.678Z,8.37
2018-08-17T12:16:00.165Z,7.67
2018-08-17T12:18:28.794Z,7.57
2018-08-17T12:20:57.229Z,7.10
2018-08-17T12:23:25.640Z,7.60
2018-08-17T12:25:59.389Z,8.50
2018-08-17T12:28:32.927Z,8.13
2018-08-17T12:31:04.395Z,7.87
2018-08-17T12:33:33.278Z,8.30
2018-08-17T12:36:02.688Z,8.40
2018-08-17T12:38:31.285Z,8.47
2018-08-17T12:40:59.918Z,8.23
2018-08-17T12:43:38.004Z,8.23
2018-08-17T12:46:17.805Z,8.07
2018-08-17T12:48:46.566Z,8.47
2018-08-17T12:51:15.181Z,8.43
2018-08-17T12:53:43.859Z,8.47
2018-08-17T12:56:12.475Z,8.17
2018-08-17T12:58:41.061Z,8.37
2018-08-17T13:01:10.390Z,8.00
2018-08-17T13:03:39.049Z,7.90
2018-08-17T13:06:07.689Z,7.57
2018-08-17T13:09:13.343Z,7.27
2018-08-17T13:11:47.222Z,7.47
2018-08-17T13:14:15.890Z,7.17
2018-08-17T13:16:44.753Z,7.63
2018-08-17T13:19:13.163Z,7.63
2018-08-17T13:21:41.610Z,6.90
2018-08-17T13:24:10.058Z,6.60
2018-08-17T13:26:38.499Z,7.03
2018-08-17T13:29:06.953Z,6.93
2018-08-17T13:31:35.370Z,6.40
2018-08-17T13:34:04.086Z,7.50
2018-08-17T13:36:32.514Z,6.70
2018-08-17T13:39:00.941Z,7.65
2018-08-17T13:41:29.390Z,7.13
2018-08-17T13:43:57.801Z,6.57
2018-08-17T13:46:26.247Z,6.90
2018-08-17T13:48:54.800Z,6.60
2018-08-17T13:51:23.245Z,6.30
2018-08-17T13:53:51.676Z,6.00
2018-08-17T13:56:20.106Z,6.73
2018-08-17T13:58:48.536Z,5.57
2018-08-17T14:01:17.031Z,5.50
2018-08-17T14:03:45.404Z,5.67
2018-08-17T14:06:13.834Z,6.00
2018-08-17T14:08:42.297Z,5.93
2018-08-17T14:11:10.719Z,5.50
2018-08-17T14:13:39.165Z,6.17
2018-08-17T14:16:07.624Z,5.10
2018-08-17T14:18:36.085Z,5.40
2018-08-17T14:21:04.521Z,5.97
2018-08-17T14:23:32.978Z,5.67
2018-08-17T14:26:01.424Z,4.50
2018-08-17T14:28:29.821Z,5.10
2018-08-17T14:30:58.286Z,6.10
2018-08-17T14:33:26.717Z,6.13
2018-08-17T14:35:55.118Z,5.17
2018-08-17T14:38:30.827Z,6.00
2018-08-17T14:40:59.220Z,5.73
2018-08-17T14:43:27.909Z,5.77
2018-08-17T14:45:56.416Z,5.40
2018-08-17T14:48:24.898Z,5.47
2018-08-17T14:50:55.644Z,5.23
2018-08-17T14:53:24.159Z,5.33
2018-08-17T14:55:52.693Z,5.10
2018-08-17T14:58:21.188Z,4.33
2018-08-17T15:00:49.704Z,4.80
2018-08-17T15:03:18.150Z,4.63
2018-08-17T15:05:46.562Z,4.00
2018-08-17T15:08:15.015Z,4.63
2018-08-17T15:10:43.455Z,5.23
2018-08-17T15:13:11.960Z,3.80
2018-08-17T15:15:44.568Z,4.57
2018-08-17T15:18:13.018Z,4.67
2018-08-17T15:20:41.572Z,4.50
2018-08-17T15:23:10.062Z,4.20
2018-08-17T15:25:39.197Z,4.57
2018-08-17T15:28:07.723Z,4.87
2018-08-17T15:30:36.098Z,4.55
2018-08-17T15:33:04.551Z,4.73
2018-08-17T15:35:32.993Z,4.83
2018-08-17T15:38:02.489Z,4.63
2018-08-17T15:40:30.968Z,4.20
2018-08-17T15:43:03.562Z,4.10
2018-08-17T15:45:32.001Z,3.70
2018-08-17T15:48:00.548Z,3.97
2018-08-17T15:50:29.187Z,3.43
2018-08-17T15:52:58.050Z,3.77
2018-08-17T15:55:26.502Z,3.70
2018-08-17T15:57:55.027Z,3.70
2018-08-17T16:00:23.431Z,4.60
2018-08-17T16:02:51.905Z,4.00
2018-08-17T16:05:20.429Z,3.87
2018-08-17T16:07:58.995Z,3.80
2018-08-17T16:10:27.496Z,3.57
2018-08-17T16:12:56.049Z,4.27
2018-08-17T16:15:24.512Z,3.90
2018-08-17T16:17:52.966Z,3.90
2018-08-17T16:20:21.423Z,4.40
2018-08-17T16:22:49.853Z,3.93
2018-08-17T16:25:18.406Z,3.70
2018-08-17T16:27:46.847Z,4.03
2018-08-17T16:30:16.025Z,4.00
2018-08-17T16:32:44.465Z,4.23
2018-08-17T16:35:13.469Z,4.40
2018-08-17T16:37:43.372Z,4.90
2018-08-17T16:40:11.820Z,5.17
2018-08-17T16:42:40.213Z,4.73
2018-08-17T16:45:09.367Z,4.40
2018-08-17T16:47:42.444Z,4.63
2018-08-17T16:50:10.954Z,4.85
2018-08-17T16:52:39.832Z,4.70
2018-08-17T16:55:08.478Z,5.13
2018-08-17T16:57:37.427Z,5.00
2018-08-17T17:00:07.777Z,4.00
2018-08-17T17:02:36.218Z,4.03
2018-08-17T17:05:05.440Z,3.80
2018-08-17T17:07:34.159Z,4.00
2018-08-17T17:10:02.589Z,4.27
2018-08-17T17:12:31.086Z,3.87
2018-08-17T17:15:06.609Z,4.10
2018-08-17T17:17:35.601Z,4.80
2018-08-17T17:20:04.396Z,4.27
2018-08-17T17:22:32.815Z,5.27
2018-08-17T17:25:09.445Z,4.40
2018-08-17T17:27:38.292Z,4.20
2018-08-17T17:30:07.291Z,4.13
2018-08-17T17:32:35.806Z,4.53
2018-08-17T17:35:04.385Z,4.10
2018-08-17T17:37:32.791Z,3.90
2018-08-17T17:40:01.369Z,3.83
2018-08-17T17:42:30.842Z,4.00
2018-08-17T17:44:59.302Z,4.23
2018-08-17T17:47:27.739Z,3.90
2018-08-17T17:49:56.263Z,3.73
2018-08-17T17:52:24.749Z,3.47
2018-08-17T17:54:53.171Z,3.40
2018-08-17T17:57:34.167Z,3.40
2018-08-17T18:00:02.686Z,3.27
2018-08-17T18:02:31.167Z,3.20
2018-08-17T18:04:59.621Z,3.00
2018-08-17T18:07:33.814Z,3.57
2018-08-17T18:10:03.371Z,3.20
2018-08-17T18:12:32.013Z,2.87
2018-08-17T18:15:00.516Z,3.13
2018-08-17T18:17:29.161Z,2.97
2018-08-17T18:19:57.605Z,3.20
2018-08-17T18:22:32.353Z,3.00
2018-08-17T18:25:05.599Z,3.03
2018-08-17T18:27:34.173Z,2.80
2018-08-17T18:30:02.919Z,3.20
2018-08-17T18:32:31.465Z,2.77
2018-08-17T18:34:59.999Z,3.07
2018-08-17T18:37:28.516Z,2.63
2018-08-17T18:40:00.542Z,2.63
2018-08-17T18:42:29.018Z,3.30
2018-08-17T18:44:57.603Z,2.60
2018-08-17T18:47:26.080Z,2.67
2018-08-17T18:49:54.566Z,2.70
2018-08-17T18:52:23.098Z,2.70
2018-08-17T18:54:51.538Z,2.80
2018-08-17T18:57:20.521Z,2.90
2018-08-17T18:59:49.014Z,3.07
2018-08-17T19:02:17.501Z,4.00
2018-08-17T19:04:45.973Z,3.87
2018-08-17T19:07:14.498Z,3.60
2018-08-17T19:09:43.392Z,3.40
2018-08-17T19:12:11.880Z,3.03
2018-08-17T19:14:47.316Z,3.70
2018-08-17T19:17:21.049Z,3.80
2018-08-17T19:19:50.318Z,3.30
2018-08-17T19:22:22.764Z,3.40
2018-08-17T19:24:52.576Z,3.53
2018-08-17T19:27:31.652Z,3.50
2018-08-17T19:30:00.149Z,3.80
2018-08-17T19:32:29.874Z,3.87
2018-08-17T19:34:58.361Z,3.40
2018-08-17T19:37:26.839Z,3.03
2018-08-17T19:39:55.319Z,3.60
2018-08-17T19:42:23.800Z,3.40
2018-08-17T19:44:52.320Z,3.30
2018-08-17T19:47:32.577Z,3.83
2018-08-17T19:50:01.047Z,4.00
2018-08-17T19:52:29.543Z,4.00
2018-08-17T19:54:58.086Z,4.10
2018-08-17T19:57:28.586Z,4.30
2018-08-17T19:59:57.034Z,4.37
2018-08-17T20:02:25.527Z,4.80
2018-08-17T20:04:53.969Z,4.40
2018-08-17T20:07:22.484Z,4.43
2018-08-17T20:09:50.987Z,4.30
2018-08-17T20:12:19.553Z,5.47
2018-08-17T20:14:48.088Z,4.57
2018-08-17T20:17:16.613Z,5.23
2018-08-17T20:19:49.447Z,5.10
2018-08-17T20:22:20.441Z,5.57
2018-08-17T20:24:49.080Z,5.50
2018-08-17T20:27:18.429Z,5.33
2018-08-17T20:29:51.481Z,5.13
2018-08-17T20:32:19.973Z,6.13
2018-08-17T20:34:49.601Z,5.90
2018-08-17T20:37:18.671Z,5.30
2018-08-17T20:39:47.847Z,5.20
2018-08-17T20:42:16.366Z,5.10
2018-08-17T20:44:44.867Z,5.50
2018-08-17T20:47:13.354Z,4.97
2018-08-17T20:49:49.873Z,5.57
2018-08-17T20:52:18.426Z,5.20
2018-08-17T20:54:46.942Z,5.23
2018-08-17T20:57:15.423Z,5.17
2018-08-17T20:59:44.057Z,5.30
2018-08-17T21:02:12.521Z,5.57
2018-08-17T21:04:41.019Z,5.37
2018-08-17T21:07:09.507Z,5.30
2018-08-17T21:09:37.960Z,5.50
2018-08-17T21:12:06.468Z,6.37
2018-08-17T21:14:34.934Z,6.43
2018-08-17T21:17:03.419Z,5.77
2018-08-17T21:19:39.017Z,6.20
2018-08-17T21:22:07.710Z,6.87
2018-08-17T21:24:37.261Z,6.27
2018-08-17T21:27:05.681Z,5.83
2018-08-17T21:29:34.187Z,6.30
2018-08-17T21:32:02.715Z,6.57
2018-08-17T21:34:31.800Z,6.60
2018-08-17T21:37:00.237Z,6.53
2018-08-17T21:39:28.697Z,6.70
2018-08-17T21:41:57.271Z,7.30
2018-08-17T21:44:25.689Z,6.13
2018-08-17T21:47:02.821Z,6.60
2018-08-17T21:49:31.394Z,5.73
2018-08-17T21:52:02.502Z,6.60
2018-08-17T21:54:32.326Z,6.57
2018-08-17T21:57:01.661Z,5.83
2018-08-17T21:59:35.766Z,6.63
2018-08-17T22:02:05.446Z,7.00
2018-08-17T22:04:34.009Z,6.80
2018-08-17T22:07:06.724Z,6.40
2018-08-17T22:09:41.290Z,6.30
2018-08-17T22:12:10.831Z,6.33
2018-08-17T22:14:41.422Z,6.57
2018-08-17T22:17:21.129Z,6.07
2018-08-17T22:19:49.839Z,6.17
2018-08-17T22:22:18.357Z,6.10
2018-08-17T22:24:52.469Z,6.73
2018-08-17T22:27:21.583Z,6.23
2018-08-17T22:29:51.517Z,6.40
2018-08-17T22:32:20.441Z,5.80
2018-08-17T22:34:49.329Z,6.60
2018-08-17T22:37:18.522Z,6.30
2018-08-17T22:39:47.249Z,6.53
2018-08-17T22:42:23.225Z,6.40
2018-08-17T22:44:52.250Z,6.43
2018-08-17T22:47:22.742Z,6.90
2018-08-17T22:49:51.984Z,6.80
2018-08-17T22:52:20.599Z,6.63
2018-08-17T22:54:54.289Z,6.70
2018-08-17T22:57:22.873Z,6.63
2018-08-17T23:00:07.513Z,6.87
2018-08-17T23:02:36.026Z,6.30
2018-08-17T23:05:04.946Z,6.80
2018-08-17T23:07:33.531Z,6.77
2018-08-17T23:10:02.235Z,6.37
2018-08-17T23:12:31.630Z,6.63
2018-08-17T23:15:00.530Z,6.97
2018-08-17T23:17:29.039Z,6.77
2018-08-17T23:19:58.053Z,6.77
2018-08-17T23:22:26.567Z,7.37
2018-08-17T23:24:55.039Z,6.90
2018-08-17T23:27:23.547Z,7.27
2018-08-17T23:29:51.977Z,7.27
2018-08-17T23:32:20.497Z,7.63
2018-08-17T23:34:48.894Z,7.03
2018-08-17T23:37:17.401Z,7.63
2018-08-17T23:39:45.941Z,6.73
2018-08-17T23:42:14.442Z,6.67
2018-08-17T23:44:42.858Z,5.70
2018-08-17T23:47:11.317Z,6.33
2018-08-17T23:49:39.744Z,6.00
2018-08-17T23:52:08.186Z,5.70
2018-08-17T23:54:38.385Z,5.83
2018-08-17T23:57:06.802Z,6.70
2018-08-17T23:59:35.265Z,6.20
